Terminal Aerodrome Forecast
Issued by NWS

Home | Current Version | Previous Version | Text Only | Print | Product List | Glossary On
Versions: 1 2 3 4 5 6 7 8 9 10 11 12 13 14
928
FTUS42 KMLB 011402 AAA
TAFTIX
TAF AMD
KTIX 011402Z 0114/0212 14011KT P6SM SCT025 BKN250
      TEMPO 0114/0117 BKN025
     FM011800 11009G15KT P6SM FEW040 BKN250
     FM020000 13004KT P6SM FEW025 SCT250=

USA.gov is the U.S. government's official web portal to all federal, state and local government web resources and services.